sensor_id;sensor_type;location;lat;lon;timestamp;P1;durP1;ratioP1;P2;durP2;ratioP2
2674;SDS011;1347;42.122;24.746;2023-02-28T00:00:11;16.43;;;9.40;;
2674;SDS011;1347;42.122;24.746;2023-02-28T00:02:40;22.53;;;10.20;;
2674;SDS011;1347;42.122;24.746;2023-02-28T00:05:09;15.83;;;9.63;;
2674;SDS011;1347;42.122;24.746;2023-02-28T00:07:37;19.50;;;10.33;;
2674;SDS011;1347;42.122;24.746;2023-02-28T00:10:05;21.40;;;9.97;;
2674;SDS011;1347;42.122;24.746;2023-02-28T00:12:33;17.43;;;9.87;;
2674;SDS011;1347;42.122;24.746;2023-02-28T00:15:01;19.27;;;10.43;;
2674;SDS011;1347;42.122;24.746;2023-02-28T00:17:29;18.20;;;10.33;;
2674;SDS011;1347;42.122;24.746;2023-02-28T00:19:57;15.57;;;10.80;;
2674;SDS011;1347;42.122;24.746;2023-02-28T00:22:29;20.50;;;9.77;;
2674;SDS011;1347;42.122;24.746;2023-02-28T00:24:56;21.90;;;9.33;;
2674;SDS011;1347;42.122;24.746;2023-02-28T00:27:23;18.77;;;10.17;;
2674;SDS011;1347;42.122;24.746;2023-02-28T00:29:50;18.33;;;10.17;;
2674;SDS011;1347;42.122;24.746;2023-02-28T00:32:19;16.80;;;9.87;;
2674;SDS011;1347;42.122;24.746;2023-02-28T00:34:47;18.70;;;10.10;;
2674;SDS011;1347;42.122;24.746;2023-02-28T00:37:14;18.60;;;10.50;;
2674;SDS011;1347;42.122;24.746;2023-02-28T00:39:41;18.43;;;10.60;;
2674;SDS011;1347;42.122;24.746;2023-02-28T00:42:08;18.13;;;10.30;;
2674;SDS011;1347;42.122;24.746;2023-02-28T00:44:35;25.03;;;11.17;;
2674;SDS011;1347;42.122;24.746;2023-02-28T00:47:02;17.70;;;9.43;;
2674;SDS011;1347;42.122;24.746;2023-02-28T00:49:29;16.40;;;10.20;;
2674;SDS011;1347;42.122;24.746;2023-02-28T00:51:58;14.73;;;10.43;;
2674;SDS011;1347;42.122;24.746;2023-02-28T00:54:25;18.27;;;11.33;;
2674;SDS011;1347;42.122;24.746;2023-02-28T00:56:52;19.80;;;10.43;;
2674;SDS011;1347;42.122;24.746;2023-02-28T00:59:19;18.83;;;10.80;;
2674;SDS011;1347;42.122;24.746;2023-02-28T01:01:46;16.07;;;11.20;;
2674;SDS011;1347;42.122;24.746;2023-02-28T01:04:14;16.13;;;10.47;;
2674;SDS011;1347;42.122;24.746;2023-02-28T01:06:41;18.03;;;10.87;;
2674;SDS011;1347;42.122;24.746;2023-02-28T01:09:10;14.57;;;10.43;;
2674;SDS011;1347;42.122;24.746;2023-02-28T01:11:37;20.10;;;11.13;;
2674;SDS011;1347;42.122;24.746;2023-02-28T01:14:06;22.03;;;12.10;;
2674;SDS011;1347;42.122;24.746;2023-02-28T01:16:34;28.17;;;11.90;;
2674;SDS011;1347;42.122;24.746;2023-02-28T01:19:01;23.67;;;11.60;;
2674;SDS011;1347;42.122;24.746;2023-02-28T01:21:28;18.10;;;11.40;;
2674;SDS011;1347;42.122;24.746;2023-02-28T01:23:56;22.47;;;12.27;;
2674;SDS011;1347;42.122;24.746;2023-02-28T01:26:24;26.97;;;12.93;;
2674;SDS011;1347;42.122;24.746;2023-02-28T01:28:52;19.43;;;10.67;;
2674;SDS011;1347;42.122;24.746;2023-02-28T01:31:20;20.07;;;12.20;;
2674;SDS011;1347;42.122;24.746;2023-02-28T01:33:48;17.60;;;10.87;;
2674;SDS011;1347;42.122;24.746;2023-02-28T01:36:16;20.00;;;12.20;;
2674;SDS011;1347;42.122;24.746;2023-02-28T01:38:45;22.27;;;12.20;;
2674;SDS011;1347;42.122;24.746;2023-02-28T01:41:14;29.67;;;13.90;;
2674;SDS011;1347;42.122;24.746;2023-02-28T01:43:58;26.97;;;14.30;;
2674;SDS011;1347;42.122;24.746;2023-02-28T01:46:29;27.73;;;12.97;;
2674;SDS011;1347;42.122;24.746;2023-02-28T01:48:59;21.80;;;13.43;;
2674;SDS011;1347;42.122;24.746;2023-02-28T01:51:31;20.63;;;12.90;;
2674;SDS011;1347;42.122;24.746;2023-02-28T01:54:02;20.20;;;14.03;;
2674;SDS011;1347;42.122;24.746;2023-02-28T01:56:39;23.83;;;13.90;;
2674;SDS011;1347;42.122;24.746;2023-02-28T01:59:11;29.97;;;14.80;;
2674;SDS011;1347;42.122;24.746;2023-02-28T02:01:40;22.70;;;12.57;;
2674;SDS011;1347;42.122;24.746;2023-02-28T02:04:08;27.43;;;14.50;;
2674;SDS011;1347;42.122;24.746;2023-02-28T02:06:37;22.20;;;12.40;;
2674;SDS011;1347;42.122;24.746;2023-02-28T02:09:06;23.27;;;13.93;;
2674;SDS011;1347;42.122;24.746;2023-02-28T02:11:33;21.93;;;13.13;;
2674;SDS011;1347;42.122;24.746;2023-02-28T02:14:16;15.30;;;11.70;;
2674;SDS011;1347;42.122;24.746;2023-02-28T02:17:04;32.70;;;13.87;;
2674;SDS011;1347;42.122;24.746;2023-02-28T02:19:46;21.40;;;13.97;;
2674;SDS011;1347;42.122;24.746;2023-02-28T02:25:33;16.80;;;12.57;;
2674;SDS011;1347;42.122;24.746;2023-02-28T02:28:22;21.80;;;14.87;;
2674;SDS011;1347;42.122;24.746;2023-02-28T02:31:08;23.77;;;13.90;;
2674;SDS011;1347;42.122;24.746;2023-02-28T02:34:05;24.47;;;13.77;;
2674;SDS011;1347;42.122;24.746;2023-02-28T02:36:49;17.03;;;11.60;;
2674;SDS011;1347;42.122;24.746;2023-02-28T02:39:27;16.90;;;12.20;;
2674;SDS011;1347;42.122;24.746;2023-02-28T02:42:03;23.40;;;12.90;;
2674;SDS011;1347;42.122;24.746;2023-02-28T02:44:39;22.50;;;13.83;;
2674;SDS011;1347;42.122;24.746;2023-02-28T02:47:11;22.63;;;14.30;;
2674;SDS011;1347;42.122;24.746;2023-02-28T02:49:43;20.10;;;14.00;;
2674;SDS011;1347;42.122;24.746;2023-02-28T02:52:15;26.40;;;15.40;;
2674;SDS011;1347;42.122;24.746;2023-02-28T02:54:47;18.30;;;13.67;;
2674;SDS011;1347;42.122;24.746;2023-02-28T02:57:20;20.27;;;13.23;;
2674;SDS011;1347;42.122;24.746;2023-02-28T02:59:50;22.90;;;13.10;;
2674;SDS011;1347;42.122;24.746;2023-02-28T03:02:21;20.53;;;12.60;;
2674;SDS011;1347;42.122;24.746;2023-02-28T03:04:53;18.90;;;13.10;;
2674;SDS011;1347;42.122;24.746;2023-02-28T03:07:26;20.73;;;13.03;;
2674;SDS011;1347;42.122;24.746;2023-02-28T03:09:53;24.53;;;12.40;;
2674;SDS011;1347;42.122;24.746;2023-02-28T03:12:22;19.70;;;14.10;;
2674;SDS011;1347;42.122;24.746;2023-02-28T03:14:59;22.30;;;14.47;;
2674;SDS011;1347;42.122;24.746;2023-02-28T03:17:38;21.57;;;13.07;;
2674;SDS011;1347;42.122;24.746;2023-02-28T03:20:19;20.23;;;13.10;;
2674;SDS011;1347;42.122;24.746;2023-02-28T03:23:01;21.30;;;14.40;;
2674;SDS011;1347;42.122;24.746;2023-02-28T03:25:37;21.93;;;14.30;;
2674;SDS011;1347;42.122;24.746;2023-02-28T03:28:10;24.60;;;14.73;;
2674;SDS011;1347;42.122;24.746;2023-02-28T03:30:45;27.17;;;14.27;;
2674;SDS011;1347;42.122;24.746;2023-02-28T03:33:19;22.00;;;15.83;;
2674;SDS011;1347;42.122;24.746;2023-02-28T03:35:52;26.17;;;16.43;;
2674;SDS011;1347;42.122;24.746;2023-02-28T03:38:23;21.60;;;14.67;;
2674;SDS011;1347;42.122;24.746;2023-02-28T03:40:55;20.97;;;14.40;;
2674;SDS011;1347;42.122;24.746;2023-02-28T03:43:28;20.30;;;15.37;;
2674;SDS011;1347;42.122;24.746;2023-02-28T03:45:59;20.83;;;15.40;;
2674;SDS011;1347;42.122;24.746;2023-02-28T03:48:33;24.17;;;15.50;;
2674;SDS011;1347;42.122;24.746;2023-02-28T03:51:08;23.73;;;15.33;;
2674;SDS011;1347;42.122;24.746;2023-02-28T03:53:42;25.83;;;15.57;;
2674;SDS011;1347;42.122;24.746;2023-02-28T03:56:14;26.10;;;15.07;;
2674;SDS011;1347;42.122;24.746;2023-02-28T03:58:44;22.63;;;16.03;;
2674;SDS011;1347;42.122;24.746;2023-02-28T04:01:20;27.00;;;16.53;;
2674;SDS011;1347;42.122;24.746;2023-02-28T04:03:50;22.87;;;15.53;;
2674;SDS011;1347;42.122;24.746;2023-02-28T04:06:20;20.83;;;15.50;;
2674;SDS011;1347;42.122;24.746;2023-02-28T04:08:49;23.27;;;14.17;;
2674;SDS011;1347;42.122;24.746;2023-02-28T04:11:22;19.43;;;12.77;;
2674;SDS011;1347;42.122;24.746;2023-02-28T04:13:50;24.43;;;13.10;;
2674;SDS011;1347;42.122;24.746;2023-02-28T04:16:17;20.93;;;13.80;;
2674;SDS011;1347;42.122;24.746;2023-02-28T04:18:44;26.97;;;14.20;;
2674;SDS011;1347;42.122;24.746;2023-02-28T04:21:11;23.03;;;15.83;;
2674;SDS011;1347;42.122;24.746;2023-02-28T04:23:39;24.40;;;14.13;;
2674;SDS011;1347;42.122;24.746;2023-02-28T04:26:06;24.13;;;14.90;;
2674;SDS011;1347;42.122;24.746;2023-02-28T04:28:33;15.87;;;12.90;;
2674;SDS011;1347;42.122;24.746;2023-02-28T04:31:01;21.40;;;13.90;;
2674;SDS011;1347;42.122;24.746;2023-02-28T04:33:30;21.73;;;14.60;;
2674;SDS011;1347;42.122;24.746;2023-02-28T04:35:58;20.67;;;14.50;;
2674;SDS011;1347;42.122;24.746;2023-02-28T04:38:27;19.90;;;13.70;;
2674;SDS011;1347;42.122;24.746;2023-02-28T04:40:58;18.93;;;13.87;;
2674;SDS011;1347;42.122;24.746;2023-02-28T04:43:26;22.00;;;14.30;;
2674;SDS011;1347;42.122;24.746;2023-02-28T04:45:54;23.40;;;14.93;;
2674;SDS011;1347;42.122;24.746;2023-02-28T04:48:22;23.50;;;14.87;;
2674;SDS011;1347;42.122;24.746;2023-02-28T04:50:49;18.37;;;13.23;;
2674;SDS011;1347;42.122;24.746;2023-02-28T04:53:16;26.00;;;13.60;;
2674;SDS011;1347;42.122;24.746;2023-02-28T04:55:43;21.60;;;13.20;;
2674;SDS011;1347;42.122;24.746;2023-02-28T04:58:12;17.70;;;12.67;;
2674;SDS011;1347;42.122;24.746;2023-02-28T05:00:39;22.33;;;14.80;;
2674;SDS011;1347;42.122;24.746;2023-02-28T05:03:06;20.90;;;15.00;;
2674;SDS011;1347;42.122;24.746;2023-02-28T05:05:33;21.40;;;15.30;;
2674;SDS011;1347;42.122;24.746;2023-02-28T05:08:00;20.20;;;12.07;;
2674;SDS011;1347;42.122;24.746;2023-02-28T05:10:26;18.90;;;14.03;;
2674;SDS011;1347;42.122;24.746;2023-02-28T05:12:54;17.00;;;13.30;;
2674;SDS011;1347;42.122;24.746;2023-02-28T05:15:22;14.63;;;11.33;;
2674;SDS011;1347;42.122;24.746;2023-02-28T05:17:50;16.77;;;13.07;;
2674;SDS011;1347;42.122;24.746;2023-02-28T05:20:17;17.77;;;12.87;;
2674;SDS011;1347;42.122;24.746;2023-02-28T05:22:44;22.20;;;14.23;;
2674;SDS011;1347;42.122;24.746;2023-02-28T05:25:11;18.53;;;14.30;;
2674;SDS011;1347;42.122;24.746;2023-02-28T05:27:40;16.20;;;13.00;;
2674;SDS011;1347;42.122;24.746;2023-02-28T05:30:07;20.70;;;13.50;;
2674;SDS011;1347;42.122;24.746;2023-02-28T05:32:37;18.50;;;14.00;;
2674;SDS011;1347;42.122;24.746;2023-02-28T05:35:08;25.23;;;14.60;;
2674;SDS011;1347;42.122;24.746;2023-02-28T05:37:35;23.63;;;13.10;;
2674;SDS011;1347;42.122;24.746;2023-02-28T05:40:03;22.63;;;13.93;;
2674;SDS011;1347;42.122;24.746;2023-02-28T05:42:32;19.53;;;14.40;;
2674;SDS011;1347;42.122;24.746;2023-02-28T05:44:59;19.57;;;13.57;;
2674;SDS011;1347;42.122;24.746;2023-02-28T05:47:26;20.47;;;13.43;;
2674;SDS011;1347;42.122;24.746;2023-02-28T05:49:54;22.33;;;15.53;;
2674;SDS011;1347;42.122;24.746;2023-02-28T05:52:21;19.57;;;14.87;;
2674;SDS011;1347;42.122;24.746;2023-02-28T05:54:48;20.73;;;14.40;;
2674;SDS011;1347;42.122;24.746;2023-02-28T05:57:15;21.50;;;14.97;;
2674;SDS011;1347;42.122;24.746;2023-02-28T05:59:42;23.27;;;15.27;;
2674;SDS011;1347;42.122;24.746;2023-02-28T06:02:09;27.53;;;15.23;;
2674;SDS011;1347;42.122;24.746;2023-02-28T06:04:39;25.00;;;16.37;;
2674;SDS011;1347;42.122;24.746;2023-02-28T06:07:08;24.10;;;15.50;;
2674;SDS011;1347;42.122;24.746;2023-02-28T06:09:35;21.73;;;15.63;;
2674;SDS011;1347;42.122;24.746;2023-02-28T06:12:03;20.27;;;14.40;;
2674;SDS011;1347;42.122;24.746;2023-02-28T06:14:32;24.73;;;16.70;;
2674;SDS011;1347;42.122;24.746;2023-02-28T06:17:00;23.13;;;15.47;;
2674;SDS011;1347;42.122;24.746;2023-02-28T06:19:27;19.07;;;14.50;;
2674;SDS011;1347;42.122;24.746;2023-02-28T06:21:55;24.10;;;16.37;;
2674;SDS011;1347;42.122;24.746;2023-02-28T06:24:25;18.50;;;14.43;;
2674;SDS011;1347;42.122;24.746;2023-02-28T06:26:54;22.20;;;14.67;;
2674;SDS011;1347;42.122;24.746;2023-02-28T06:29:21;20.53;;;15.00;;
2674;SDS011;1347;42.122;24.746;2023-02-28T06:31:48;23.13;;;15.83;;
2674;SDS011;1347;42.122;24.746;2023-02-28T06:34:15;24.83;;;13.73;;
2674;SDS011;1347;42.122;24.746;2023-02-28T06:36:42;25.20;;;16.27;;
2674;SDS011;1347;42.122;24.746;2023-02-28T06:39:10;29.73;;;15.83;;
2674;SDS011;1347;42.122;24.746;2023-02-28T06:41:38;32.03;;;14.97;;
2674;SDS011;1347;42.122;24.746;2023-02-28T06:44:05;30.60;;;16.00;;
2674;SDS011;1347;42.122;24.746;2023-02-28T06:46:38;27.13;;;15.33;;
2674;SDS011;1347;42.122;24.746;2023-02-28T06:49:06;23.60;;;15.23;;
2674;SDS011;1347;42.122;24.746;2023-02-28T06:51:35;25.83;;;15.40;;
2674;SDS011;1347;42.122;24.746;2023-02-28T06:54:02;24.03;;;15.60;;
2674;SDS011;1347;42.122;24.746;2023-02-28T06:56:30;21.07;;;16.03;;
2674;SDS011;1347;42.122;24.746;2023-02-28T06:58:58;27.87;;;15.40;;
2674;SDS011;1347;42.122;24.746;2023-02-28T07:01:25;21.93;;;15.00;;
2674;SDS011;1347;42.122;24.746;2023-02-28T07:03:53;26.07;;;16.47;;
2674;SDS011;1347;42.122;24.746;2023-02-28T07:06:20;27.57;;;17.47;;
2674;SDS011;1347;42.122;24.746;2023-02-28T07:08:48;21.13;;;16.20;;
2674;SDS011;1347;42.122;24.746;2023-02-28T07:11:15;21.33;;;16.47;;
2674;SDS011;1347;42.122;24.746;2023-02-28T07:13:42;20.93;;;16.87;;
2674;SDS011;1347;42.122;24.746;2023-02-28T07:16:11;20.63;;;15.70;;
2674;SDS011;1347;42.122;24.746;2023-02-28T07:18:38;22.40;;;15.33;;
2674;SDS011;1347;42.122;24.746;2023-02-28T07:21:06;21.00;;;16.57;;
2674;SDS011;1347;42.122;24.746;2023-02-28T07:23:34;19.57;;;14.23;;
2674;SDS011;1347;42.122;24.746;2023-02-28T07:26:03;22.30;;;14.57;;
2674;SDS011;1347;42.122;24.746;2023-02-28T07:28:30;23.07;;;15.57;;
2674;SDS011;1347;42.122;24.746;2023-02-28T07:31:02;19.93;;;14.87;;
2674;SDS011;1347;42.122;24.746;2023-02-28T07:33:31;28.37;;;15.60;;
2674;SDS011;1347;42.122;24.746;2023-02-28T07:36:02;26.80;;;15.43;;
2674;SDS011;1347;42.122;24.746;2023-02-28T07:38:30;21.83;;;15.53;;
2674;SDS011;1347;42.122;24.746;2023-02-28T07:40:59;21.00;;;16.20;;
2674;SDS011;1347;42.122;24.746;2023-02-28T07:43:26;21.73;;;17.07;;
2674;SDS011;1347;42.122;24.746;2023-02-28T07:45:53;19.63;;;16.77;;
2674;SDS011;1347;42.122;24.746;2023-02-28T07:48:20;26.40;;;19.73;;
2674;SDS011;1347;42.122;24.746;2023-02-28T07:50:54;24.63;;;19.73;;
2674;SDS011;1347;42.122;24.746;2023-02-28T07:53:22;29.83;;;22.30;;
2674;SDS011;1347;42.122;24.746;2023-02-28T07:55:48;30.53;;;22.43;;
2674;SDS011;1347;42.122;24.746;2023-02-28T07:58:15;29.63;;;21.70;;
2674;SDS011;1347;42.122;24.746;2023-02-28T08:00:42;33.03;;;22.73;;
2674;SDS011;1347;42.122;24.746;2023-02-28T08:03:10;27.53;;;21.33;;
2674;SDS011;1347;42.122;24.746;2023-02-28T08:05:38;30.60;;;20.40;;
2674;SDS011;1347;42.122;24.746;2023-02-28T08:08:06;29.97;;;21.37;;
2674;SDS011;1347;42.122;24.746;2023-02-28T08:10:33;30.37;;;20.90;;
2674;SDS011;1347;42.122;24.746;2023-02-28T08:13:01;30.17;;;19.97;;
2674;SDS011;1347;42.122;24.746;2023-02-28T08:15:28;25.23;;;18.03;;
2674;SDS011;1347;42.122;24.746;2023-02-28T08:17:55;27.73;;;19.37;;
2674;SDS011;1347;42.122;24.746;2023-02-28T08:20:22;27.50;;;19.73;;
2674;SDS011;1347;42.122;24.746;2023-02-28T08:22:49;30.07;;;20.50;;
2674;SDS011;1347;42.122;24.746;2023-02-28T08:25:17;26.30;;;20.83;;
2674;SDS011;1347;42.122;24.746;2023-02-28T08:27:44;26.77;;;20.40;;
2674;SDS011;1347;42.122;24.746;2023-02-28T08:30:12;29.53;;;21.70;;
2674;SDS011;1347;42.122;24.746;2023-02-28T08:32:40;29.43;;;19.97;;
2674;SDS011;1347;42.122;24.746;2023-02-28T08:35:07;33.97;;;19.70;;
2674;SDS011;1347;42.122;24.746;2023-02-28T08:37:35;23.20;;;18.20;;
2674;SDS011;1347;42.122;24.746;2023-02-28T08:40:02;32.50;;;21.27;;
2674;SDS011;1347;42.122;24.746;2023-02-28T08:42:31;35.17;;;19.47;;
2674;SDS011;1347;42.122;24.746;2023-02-28T08:44:58;29.03;;;21.10;;
2674;SDS011;1347;42.122;24.746;2023-02-28T08:47:25;37.07;;;21.80;;
2674;SDS011;1347;42.122;24.746;2023-02-28T08:49:52;29.93;;;21.67;;
2674;SDS011;1347;42.122;24.746;2023-02-28T08:52:19;24.63;;;21.27;;
2674;SDS011;1347;42.122;24.746;2023-02-28T08:54:46;31.57;;;22.60;;
2674;SDS011;1347;42.122;24.746;2023-02-28T08:57:13;37.07;;;24.77;;
2674;SDS011;1347;42.122;24.746;2023-02-28T08:59:41;33.93;;;23.60;;
2674;SDS011;1347;42.122;24.746;2023-02-28T09:02:08;36.00;;;23.30;;
2674;SDS011;1347;42.122;24.746;2023-02-28T09:04:35;32.33;;;23.43;;
2674;SDS011;1347;42.122;24.746;2023-02-28T09:07:02;30.80;;;22.13;;
2674;SDS011;1347;42.122;24.746;2023-02-28T09:09:29;30.63;;;21.27;;
2674;SDS011;1347;42.122;24.746;2023-02-28T09:11:56;27.93;;;21.80;;
2674;SDS011;1347;42.122;24.746;2023-02-28T09:14:23;28.27;;;21.03;;
2674;SDS011;1347;42.122;24.746;2023-02-28T09:16:51;31.33;;;23.63;;
2674;SDS011;1347;42.122;24.746;2023-02-28T09:19:18;35.53;;;25.80;;
2674;SDS011;1347;42.122;24.746;2023-02-28T09:21:45;31.83;;;23.63;;
2674;SDS011;1347;42.122;24.746;2023-02-28T09:24:12;38.10;;;23.70;;
2674;SDS011;1347;42.122;24.746;2023-02-28T09:26:40;32.53;;;25.40;;
2674;SDS011;1347;42.122;24.746;2023-02-28T09:29:07;34.53;;;27.77;;
2674;SDS011;1347;42.122;24.746;2023-02-28T09:31:34;37.80;;;28.93;;
2674;SDS011;1347;42.122;24.746;2023-02-28T09:34:03;31.43;;;25.40;;
2674;SDS011;1347;42.122;24.746;2023-02-28T09:36:30;28.97;;;22.97;;
2674;SDS011;1347;42.122;24.746;2023-02-28T09:38:58;32.00;;;24.30;;
2674;SDS011;1347;42.122;24.746;2023-02-28T09:41:25;30.23;;;24.43;;
2674;SDS011;1347;42.122;24.746;2023-02-28T09:44:00;37.00;;;24.33;;
2674;SDS011;1347;42.122;24.746;2023-02-28T09:46:32;28.33;;;25.23;;
2674;SDS011;1347;42.122;24.746;2023-02-28T09:49:01;36.10;;;28.17;;
2674;SDS011;1347;42.122;24.746;2023-02-28T09:51:39;27.43;;;23.50;;
2674;SDS011;1347;42.122;24.746;2023-02-28T09:54:14;26.70;;;22.87;;
2674;SDS011;1347;42.122;24.746;2023-02-28T09:56:44;35.73;;;24.30;;
2674;SDS011;1347;42.122;24.746;2023-02-28T09:59:20;36.90;;;25.40;;
2674;SDS011;1347;42.122;24.746;2023-02-28T10:01:57;30.73;;;24.87;;
2674;SDS011;1347;42.122;24.746;2023-02-28T10:04:37;31.30;;;23.13;;
2674;SDS011;1347;42.122;24.746;2023-02-28T10:07:18;30.10;;;24.43;;
2674;SDS011;1347;42.122;24.746;2023-02-28T10:09:51;34.80;;;26.60;;
2674;SDS011;1347;42.122;24.746;2023-02-28T10:12:21;28.80;;;22.80;;
2674;SDS011;1347;42.122;24.746;2023-02-28T10:14:49;30.40;;;22.73;;
2674;SDS011;1347;42.122;24.746;2023-02-28T10:17:19;31.53;;;24.27;;
2674;SDS011;1347;42.122;24.746;2023-02-28T10:19:53;26.37;;;23.30;;
2674;SDS011;1347;42.122;24.746;2023-02-28T10:22:27;28.23;;;24.93;;
2674;SDS011;1347;42.122;24.746;2023-02-28T10:25:16;34.93;;;27.53;;
2674;SDS011;1347;42.122;24.746;2023-02-28T10:27:44;32.40;;;28.60;;
2674;SDS011;1347;42.122;24.746;2023-02-28T10:30:12;35.83;;;26.57;;
2674;SDS011;1347;42.122;24.746;2023-02-28T10:32:40;34.47;;;25.80;;
2674;SDS011;1347;42.122;24.746;2023-02-28T10:35:16;41.40;;;27.27;;
2674;SDS011;1347;42.122;24.746;2023-02-28T10:37:46;32.00;;;24.93;;
2674;SDS011;1347;42.122;24.746;2023-02-28T10:40:29;38.23;;;33.40;;
2674;SDS011;1347;42.122;24.746;2023-02-28T10:42:59;42.33;;;32.80;;
2674;SDS011;1347;42.122;24.746;2023-02-28T10:45:28;40.50;;;27.40;;
2674;SDS011;1347;42.122;24.746;2023-02-28T10:47:58;33.57;;;26.37;;
2674;SDS011;1347;42.122;24.746;2023-02-28T10:50:35;37.67;;;28.87;;
2674;SDS011;1347;42.122;24.746;2023-02-28T10:53:10;38.60;;;28.87;;
2674;SDS011;1347;42.122;24.746;2023-02-28T10:55:42;34.93;;;26.83;;
2674;SDS011;1347;42.122;24.746;2023-02-28T10:58:20;35.27;;;27.27;;
2674;SDS011;1347;42.122;24.746;2023-02-28T11:00:48;35.73;;;26.23;;
2674;SDS011;1347;42.122;24.746;2023-02-28T11:03:24;39.00;;;27.63;;
2674;SDS011;1347;42.122;24.746;2023-02-28T11:05:58;43.50;;;28.37;;
2674;SDS011;1347;42.122;24.746;2023-02-28T11:08:25;36.90;;;27.83;;
2674;SDS011;1347;42.122;24.746;2023-02-28T11:10:56;36.77;;;27.10;;
2674;SDS011;1347;42.122;24.746;2023-02-28T11:13:26;35.37;;;25.83;;
2674;SDS011;1347;42.122;24.746;2023-02-28T11:15:57;37.30;;;28.90;;
2674;SDS011;1347;42.122;24.746;2023-02-28T11:18:27;45.90;;;28.50;;
2674;SDS011;1347;42.122;24.746;2023-02-28T11:20:58;35.70;;;28.43;;
2674;SDS011;1347;42.122;24.746;2023-02-28T11:23:31;36.87;;;28.30;;
2674;SDS011;1347;42.122;24.746;2023-02-28T11:26:02;38.97;;;29.20;;
2674;SDS011;1347;42.122;24.746;2023-02-28T11:28:30;36.43;;;29.03;;
2674;SDS011;1347;42.122;24.746;2023-02-28T11:31:03;36.57;;;28.33;;
2674;SDS011;1347;42.122;24.746;2023-02-28T11:33:37;39.00;;;28.23;;
2674;SDS011;1347;42.122;24.746;2023-02-28T11:36:11;37.20;;;28.57;;
2674;SDS011;1347;42.122;24.746;2023-02-28T11:38:40;42.33;;;30.20;;
2674;SDS011;1347;42.122;24.746;2023-02-28T11:44:08;36.67;;;29.67;;
2674;SDS011;1347;42.122;24.746;2023-02-28T11:46:47;39.13;;;30.60;;
2674;SDS011;1347;42.122;24.746;2023-02-28T11:49:22;38.50;;;32.33;;
2674;SDS011;1347;42.122;24.746;2023-02-28T11:52:02;47.73;;;31.30;;
2674;SDS011;1347;42.122;24.746;2023-02-28T11:54:48;39.43;;;28.30;;
2674;SDS011;1347;42.122;24.746;2023-02-28T11:57:44;41.77;;;30.40;;
2674;SDS011;1347;42.122;24.746;2023-02-28T12:03:17;46.80;;;36.27;;
2674;SDS011;1347;42.122;24.746;2023-02-28T12:05:56;47.57;;;35.30;;
2674;SDS011;1347;42.122;24.746;2023-02-28T12:08:39;45.90;;;35.87;;
2674;SDS011;1347;42.122;24.746;2023-02-28T12:11:15;48.77;;;35.90;;
2674;SDS011;1347;42.122;24.746;2023-02-28T12:13:56;55.10;;;38.00;;
2674;SDS011;1347;42.122;24.746;2023-02-28T12:16:35;57.97;;;44.87;;
2674;SDS011;1347;42.122;24.746;2023-02-28T12:19:19;50.77;;;37.47;;
2674;SDS011;1347;42.122;24.746;2023-02-28T12:21:52;56.13;;;39.67;;
2674;SDS011;1347;42.122;24.746;2023-02-28T12:27:37;62.77;;;45.23;;
2674;SDS011;1347;42.122;24.746;2023-02-28T12:30:12;47.10;;;38.37;;
2674;SDS011;1347;42.122;24.746;2023-02-28T12:32:44;50.10;;;36.60;;
2674;SDS011;1347;42.122;24.746;2023-02-28T12:35:14;53.03;;;39.07;;
2674;SDS011;1347;42.122;24.746;2023-02-28T12:37:47;48.47;;;35.50;;
2674;SDS011;1347;42.122;24.746;2023-02-28T12:40:21;45.67;;;35.27;;
2674;SDS011;1347;42.122;24.746;2023-02-28T12:42:52;56.87;;;34.70;;
2674;SDS011;1347;42.122;24.746;2023-02-28T12:45:23;50.70;;;36.37;;
2674;SDS011;1347;42.122;24.746;2023-02-28T12:47:55;50.37;;;38.33;;
2674;SDS011;1347;42.122;24.746;2023-02-28T12:50:26;57.70;;;36.40;;
2674;SDS011;1347;42.122;24.746;2023-02-28T12:52:58;49.50;;;37.13;;
2674;SDS011;1347;42.122;24.746;2023-02-28T12:55:31;51.17;;;38.50;;
2674;SDS011;1347;42.122;24.746;2023-02-28T12:58:07;57.90;;;39.63;;
2674;SDS011;1347;42.122;24.746;2023-02-28T13:00:43;50.40;;;35.00;;
2674;SDS011;1347;42.122;24.746;2023-02-28T13:03:35;54.43;;;41.00;;
2674;SDS011;1347;42.122;24.746;2023-02-28T13:06:20;57.43;;;42.27;;
2674;SDS011;1347;42.122;24.746;2023-02-28T13:09:04;53.03;;;38.47;;
2674;SDS011;1347;42.122;24.746;2023-02-28T13:11:41;49.37;;;37.27;;
2674;SDS011;1347;42.122;24.746;2023-02-28T13:14:19;54.43;;;36.53;;
2674;SDS011;1347;42.122;24.746;2023-02-28T13:16:57;47.90;;;36.07;;
2674;SDS011;1347;42.122;24.746;2023-02-28T13:19:30;54.07;;;37.43;;
2674;SDS011;1347;42.122;24.746;2023-02-28T13:21:58;53.77;;;39.60;;
2674;SDS011;1347;42.122;24.746;2023-02-28T13:24:37;54.00;;;39.40;;
2674;SDS011;1347;42.122;24.746;2023-02-28T13:33:22;51.83;;;34.63;;
2674;SDS011;1347;42.122;24.746;2023-02-28T13:36:10;50.90;;;36.63;;
2674;SDS011;1347;42.122;24.746;2023-02-28T13:38:49;49.87;;;36.37;;
2674;SDS011;1347;42.122;24.746;2023-02-28T13:44:09;48.77;;;34.83;;
2674;SDS011;1347;42.122;24.746;2023-02-28T13:49:50;46.97;;;33.70;;
2674;SDS011;1347;42.122;24.746;2023-02-28T13:52:19;45.80;;;33.20;;
2674;SDS011;1347;42.122;24.746;2023-02-28T13:55:00;48.90;;;33.60;;
2674;SDS011;1347;42.122;24.746;2023-02-28T13:57:51;53.70;;;36.00;;
2674;SDS011;1347;42.122;24.746;2023-02-28T14:00:33;53.63;;;36.20;;
2674;SDS011;1347;42.122;24.746;2023-02-28T14:03:22;54.63;;;34.87;;
2674;SDS011;1347;42.122;24.746;2023-02-28T14:06:08;51.30;;;36.57;;
2674;SDS011;1347;42.122;24.746;2023-02-28T14:08:51;48.80;;;35.40;;
2674;SDS011;1347;42.122;24.746;2023-02-28T14:11:27;46.30;;;34.90;;
2674;SDS011;1347;42.122;24.746;2023-02-28T14:13:56;46.97;;;34.00;;
2674;SDS011;1347;42.122;24.746;2023-02-28T14:16:26;45.40;;;33.00;;
2674;SDS011;1347;42.122;24.746;2023-02-28T14:19:01;45.53;;;32.20;;
2674;SDS011;1347;42.122;24.746;2023-02-28T14:21:35;45.03;;;32.07;;
2674;SDS011;1347;42.122;24.746;2023-02-28T14:24:19;39.70;;;29.20;;
2674;SDS011;1347;42.122;24.746;2023-02-28T14:27:11;38.33;;;28.83;;
2674;SDS011;1347;42.122;24.746;2023-02-28T14:32:49;36.90;;;27.10;;
2674;SDS011;1347;42.122;24.746;2023-02-28T14:35:35;36.20;;;27.23;;
2674;SDS011;1347;42.122;24.746;2023-02-28T14:38:13;33.57;;;26.60;;
2674;SDS011;1347;42.122;24.746;2023-02-28T14:40:46;35.17;;;26.73;;
2674;SDS011;1347;42.122;24.746;2023-02-28T14:43:19;32.23;;;25.80;;
2674;SDS011;1347;42.122;24.746;2023-02-28T14:45:49;40.43;;;28.83;;
2674;SDS011;1347;42.122;24.746;2023-02-28T14:48:19;32.10;;;25.23;;
2674;SDS011;1347;42.122;24.746;2023-02-28T14:50:48;43.17;;;27.60;;
2674;SDS011;1347;42.122;24.746;2023-02-28T14:53:18;41.00;;;26.60;;
2674;SDS011;1347;42.122;24.746;2023-02-28T14:55:47;35.67;;;27.13;;
2674;SDS011;1347;42.122;24.746;2023-02-28T14:58:21;33.47;;;25.60;;
2674;SDS011;1347;42.122;24.746;2023-02-28T15:00:51;32.17;;;25.60;;
2674;SDS011;1347;42.122;24.746;2023-02-28T15:03:21;33.83;;;25.97;;
2674;SDS011;1347;42.122;24.746;2023-02-28T15:05:53;32.27;;;26.77;;
2674;SDS011;1347;42.122;24.746;2023-02-28T15:08:22;32.47;;;25.77;;
2674;SDS011;1347;42.122;24.746;2023-02-28T15:10:51;35.50;;;24.77;;
2674;SDS011;1347;42.122;24.746;2023-02-28T15:13:20;36.50;;;24.17;;
2674;SDS011;1347;42.122;24.746;2023-02-28T15:15:50;36.13;;;26.13;;
2674;SDS011;1347;42.122;24.746;2023-02-28T15:18:24;33.60;;;26.73;;
2674;SDS011;1347;42.122;24.746;2023-02-28T15:20:57;31.90;;;24.13;;
2674;SDS011;1347;42.122;24.746;2023-02-28T15:23:28;29.87;;;24.93;;
2674;SDS011;1347;42.122;24.746;2023-02-28T15:25:55;34.60;;;27.40;;